Latest Coastal Weather Observations for Mardie

IDW60701

Issued at 9:42 am WST Friday 4 September 2015 (issued every 10 minutes, with the page automatically refreshed every 10 minutes)

About coastal observations | Map of coastal stations | Coastal observations for WA | Marine services | Other Formats
Station Details ID: 005008 Name: MARDIE Lat: -21.19 Lon: 115.98 Height: 11.0 m
Data from the previous 72 hours. | See also: Recent months at Mardie
Date/Time
WST
Temp

°C
Wind Pressure Rain
since 9am
mm
Weather Cloud Vis
km
Sea
Height
m
Swell
Dir
 
Speed
knots
Gust
knots
hPa Trend Height
m
Period
s
Dir
04/09:30am 21.6 WSW 6 9 1018.9 - 0.0 - - - - - - -
04/09:00am 20.1 WSW 7 10 1018.7 - 0.0 - - - - - - -
04/08:30am 18.2 SW 6 8 1018.5 - 0.0 - - - - - - -
04/08:00am 16.7 SW 6 8 1018.4 - 0.0 - - - - - - -
04/07:30am 15.4 SW 6 8 1018.2 - 0.0 - - - - - - -
04/07:00am 12.3 WSW 3 4 1018.0 - 0.0 - - - - - - -
04/06:30am 11.6 SW 4 4 1017.7 - 0.0 - - - - - - -
04/06:00am 11.6 SW 4 4 1017.3 - 0.0 - - - - - - -
04/05:30am 12.2 SW 4 5 1016.9 - 0.0 - - - - - - -
04/05:00am 13.1 SW 5 7 1016.6 - 0.0 - - - - - - -
04/04:30am 13.2 SW 5 6 1016.7 - 0.0 - - - - - - -
04/04:00am 13.8 SW 4 5 1016.7 - 0.0 - - - - - - -
04/03:30am 14.8 SW 5 6 1016.9 - 0.0 - - - - - - -
04/03:00am 15.8 SW 6 7 1017.0 - 0.0 - - - - - - -
04/02:30am 15.9 WSW 6 7 1017.1 - 0.0 - - - - - - -
04/02:00am 16.0 WSW 5 6 1017.4 - 0.0 - - - - - - -
04/01:30am 16.4 WSW 4 5 1017.5 - 0.0 - - - - - - -
04/01:00am 17.3 WSW 6 8 1017.6 - 0.0 - - - - - - -
04/12:30am 16.9 WSW 6 7 1017.7 - 0.0 - - - - - - -
04/12:00am 17.3 WSW 4 5 1018.0 - 0.0 - - - - - - -
 
Date/Time
WST
Temp

°C
Wind Pressure Rain
since 9am
mm
Weather Cloud Vis
km
Sea
Height
m
Swell
Dir
 
Speed
knots
Gust
knots
hPa Trend Height
m
Period
s
Dir
03/11:30pm 17.9 WSW 4 6 1018.1 - 0.0 - - - - - - -
03/11:00pm 18.5 WSW 4 5 1018.1 - 0.0 - - - - - - -
03/10:30pm 18.9 WSW 5 7 1018.4 - 0.0 - - - - - - -
03/10:00pm 19.3 W 5 6 1018.5 - 0.0 - - - - - - -
03/09:30pm 19.6 W 6 9 1018.5 - 0.0 - - - - - - -
03/09:00pm 19.7 W 6 8 1018.4 - 0.0 - - - - - - -
03/08:30pm 19.6 W 5 6 1018.2 - 0.0 - - - - - - -
03/08:00pm 19.5 W 3 4 1018.0 - 0.0 - - - - - - -
03/07:30pm 20.4 W 4 7 1017.5 - 0.0 - - - - - - -
03/07:00pm 20.9 W 6 9 1017.2 - 0.0 - - - - - - -
03/06:30pm 21.3 W 6 9 1016.8 - 0.0 - - - - - - -
03/06:00pm 22.1 W 11 15 1016.4 - 0.0 - - - - - - -
03/05:30pm 23.2 WNW 13 17 1016.2 - 0.0 - - - - - - -
03/05:00pm 24.1 WNW 14 18 1016.1 - 0.0 - - - - - - -
03/04:30pm 24.5 WNW 13 16 1016.0 - 0.0 - - - - - - -
03/04:00pm 25.6 WNW 13 17 1016.0 - 0.0 - - - - - - -
03/03:30pm 26.2 WNW 12 17 1015.9 - 0.0 - - - - - - -
03/03:00pm 26.6 WNW 12 15 1016.0 - 0.0 - - - - - - -
03/02:30pm 26.8 WNW 11 15 1016.0 - 0.0 - - - - - - -
03/02:00pm 27.4 WNW 11 14 1016.2 - 0.0 - - - - - - -
03/01:30pm 26.8 WNW 11 14 1016.6 - 0.0 - - - - - - -
03/01:00pm 26.4 WNW 10 14 1017.0 - 0.0 - - - - - - -
03/12:30pm 26.4 WNW 10 14 1017.2 - 0.0 - - - - - - -
03/12:00pm 26.4 WNW 9 14 1017.4 - 0.0 - - - - - - -
03/11:30am 26.6 WNW 2 7 1017.6 - 0.0 - - - - - - -
03/11:00am 25.6 NNW 2 5 1018.1 - 0.0 - - - - - - -
03/10:30am 24.5 NW 1 3 1018.3 - 0.0 - - - - - - -
03/10:00am 23.4 SSW 2 4 1018.4 - 0.0 - - - - - - -
03/09:30am 22.1 SSW 2 3 1018.5 - 0.0 - - - - - - -
03/09:00am 20.6 SSW 4 5 1018.4 - 0.0 - - - - - - -
03/08:30am 18.3 SSW 5 6 1018.0 - 0.0 - - - - - - -
03/08:00am 16.4 SW 4 5 1017.8 - 0.0 - - - - - - -
03/07:30am 14.0 SW 4 5 1017.5 - 0.0 - - - - - - -
03/07:00am 11.9 SW 4 5 1017.2 - 0.0 - - - - - - -
03/06:30am 11.3 SW 5 6 1016.9 - 0.0 - - - - - - -
03/06:00am 11.4 SW 6 7 1016.8 - 0.0 - - - - - - -
03/05:30am 11.6 SW 5 6 1016.4 - 0.0 - - - - - - -
03/05:00am 12.5 SW 6 8 1016.2 - 0.0 - - - - - - -
03/04:30am 12.3 SW 5 6 1016.1 - 0.0 - - - - - - -
03/04:00am 12.8 SW 5 5 1016.0 - 0.0 - - - - - - -
03/03:30am 13.4 SW 6 7 1016.3 - 0.0 - - - - - - -
03/03:00am 14.1 SW 5 6 1016.5 - 0.0 - - - - - - -
03/02:30am 14.8 SW 5 7 1016.6 - 0.0 - - - - - - -
03/02:00am 15.6 SSW 4 4 1016.7 - 0.0 - - - - - - -
03/01:30am 16.4 SSW 3 4 1016.9 - 0.0 - - - - - - -
03/01:00am 17.4 SSW 6 7 1017.2 - 0.0 - - - - - - -
03/12:30am 17.7 S 5 6 1017.4 - 0.0 - - - - - - -
03/12:00am 17.8 SSW 5 5 1017.7 - 0.0 - - - - - - -
 
Date/Time
WST
Temp

°C
Wind Pressure Rain
since 9am
mm
Weather Cloud Vis
km
Sea
Height
m
Swell
Dir
 
Speed
knots
Gust
knots
hPa Trend Height
m
Period
s
Dir
02/11:30pm 18.7 SW 4 5 1017.8 - 0.0 - - - - - - -
02/11:00pm 19.0 SW 5 6 1018.0 - 0.0 - - - - - - -
02/10:30pm 18.9 W 3 3 1017.8 - 0.0 - - - - - - -
02/10:00pm 18.6 W 3 3 1017.9 - 0.0 - - - - - - -
02/09:30pm 18.7 W 2 2 1017.9 - 0.0 - - - - - - -
02/09:00pm 19.1 W 3 3 1017.8 - 0.0 - - - - - - -
02/08:30pm 19.7 W 2 3 1017.7 - 0.0 - - - - - - -
02/08:00pm 20.2 W 3 5 1017.5 - 0.0 - - - - - - -
02/07:30pm 21.0 N 3 5 1017.0 - 0.0 - - - - - - -
02/07:00pm 21.8 N 6 9 1016.5 - 0.0 - - - - - - -
02/06:30pm 22.6 NNE 9 13 1016.0 - 0.0 - - - - - - -
02/06:00pm 23.5 NNE 12 17 1015.5 - 0.0 - - - - - - -
02/05:30pm 24.9 NNE 14 19 1015.3 - 0.0 - - - - - - -
02/05:00pm 25.7 NNE 15 21 1015.0 - 0.0 - - - - - - -
02/04:30pm 26.5 NNE 16 22 1014.5 - 0.0 - - - - - - -
02/04:00pm 27.4 NNE 15 21 1014.2 - 0.0 - - - - - - -
02/03:30pm 26.7 NNE 17 22 1014.3 - 0.0 - - - - - - -
02/03:00pm 27.5 NNE 16 23 1014.3 - 0.0 - - - - - - -
02/02:30pm 28.0 NNE 20 25 1014.3 - 0.0 - - - - - - -
02/02:00pm 28.9 NNE 17 25 1014.6 - 0.0 - - - - - - -
02/01:30pm 28.6 N 15 22 1014.7 - 0.0 - - - - - - -
02/01:00pm 29.1 N 16 23 1014.8 - 0.0 - - - - - - -
02/12:30pm 30.0 NNE 11 19 1015.3 - 0.0 - - - - - - -
02/12:00pm 29.3 NNE 6 13 1016.0 - 0.0 - - - - - - -
02/11:30am 29.0 NE 8 14 1016.3 - 0.0 - - - - - - -
02/11:00am 28.4 NNE 10 16 1016.5 - 0.0 - - - - - - -
02/10:30am 28.4 ENE 10 14 1016.7 - 0.0 - - - - - - -
02/10:00am 27.9 E 10 13 1016.6 - 0.0 - - - - - - -
02/09:30am 26.1 E 10 14 1016.5 - 0.0 - - - - - - -
02/09:00am 24.5 E 12 16 1016.4 - 0.0 - - - - - - -
02/08:30am 23.1 ESE 6 8 1016.2 - 0.0 - - - - - - -
02/08:00am 20.9 SSE 5 7 1016.1 - 0.0 - - - - - - -
02/07:30am 16.9 SSE 4 5 1015.8 - 0.0 - - - - - - -
02/07:00am 13.3 SSE 4 5 1015.7 - 0.0 - - - - - - -
02/06:30am 11.6 S 6 7 1015.3 - 0.0 - - - - - - -
02/06:00am 11.1 SSE 5 6 1015.0 - 0.0 - - - - - - -
02/05:30am 11.7 S 5 6 1014.8 - 0.0 - - - - - - -
02/05:00am 12.0 S 5 6 1014.6 - 0.0 - - - - - - -
02/04:30am 12.3 S 5 6 1014.6 - 0.0 - - - - - - -
02/04:00am 12.6 S 5 6 1014.5 - 0.0 - - - - - - -
02/03:30am 13.1 SSW 6 8 1014.5 - 0.0 - - - - - - -
02/03:00am 12.6 SSW 5 6 1014.6 - 0.0 - - - - - - -
02/02:30am 12.9 SSW 4 4 1014.7 - 0.0 - - - - - - -
02/02:00am 13.5 SSW 2 3 1014.9 - 0.0 - - - - - - -
02/01:30am 13.9 SW 5 6 1015.0 - 0.0 - - - - - - -
02/01:00am 14.3 SW 5 6 1015.2 - 0.0 - - - - - - -
02/12:30am 15.5 SW 4 4 1015.5 - 0.0 - - - - - - -
02/12:00am 15.9 SW 6 6 1015.5 - 0.0 - - - - - - -
 
Date/Time
WST
Temp

°C
Wind Pressure Rain
since 9am
mm
Weather Cloud Vis
km
Sea
Height
m
Swell
Dir
 
Speed
knots
Gust
knots
hPa Trend Height
m
Period
s
Dir
01/11:30pm 16.9 WSW 4 5 1015.6 - 0.0 - - - - - - -
01/11:00pm 17.6 WSW 3 3 1015.7 - 0.0 - - - - - - -
01/10:30pm 18.2 WSW 3 6 1015.7 - 0.0 - - - - - - -
01/10:00pm 18.4 W 6 7 1015.9 - 0.0 - - - - - - -
01/09:30pm 18.8 W 4 5 1016.0 - 0.0 - - - - - - -
01/09:00pm 19.7 WSW 6 7 1015.8 - 0.0 - - - - - - -
01/08:30pm 20.2 WSW 6 7 1015.6 - 0.0 - - - - - - -
01/08:00pm 21.0 W 8 10 1015.4 - 0.0 - - - - - - -
01/07:30pm 21.2 W 10 13 1014.9 - 0.0 - - - - - - -
01/07:00pm 21.7 W 12 16 1014.5 - 0.0 - - - - - - -
01/06:30pm 22.2 WNW 13 20 1014.2 - 0.0 - - - - - - -
01/06:00pm 23.0 WNW 14 19 1013.8 - 0.0 - - - - - - -
01/05:30pm 24.2 WNW 14 19 1013.6 - 0.0 - - - - - - -
01/05:00pm 25.1 WNW 14 20 1013.5 - 0.0 - - - - - - -
01/04:30pm 25.4 WNW 15 21 1013.3 - 0.0 - - - - - - -
01/04:00pm 26.4 WNW 15 19 1013.3 - 0.0 - - - - - - -
01/03:30pm 27.2 WNW 14 20 1013.3 - 0.0 - - - - - - -
01/03:00pm 28.2 WNW 14 19 1013.2 - 0.0 - - - - - - -
01/02:30pm 28.9 SW 6 11 1013.5 - 0.0 - - - - - - -
01/02:00pm 29.4 SSW 7 13 1013.8 - 0.0 - - - - - - -
01/01:30pm 28.6 S 7 11 1014.2 - 0.0 - - - - - - -
01/01:00pm 28.6 SSW 8 13 1014.7 - 0.0 - - - - - - -
01/12:30pm 26.9 SSW 7 13 1015.3 - 0.0 - - - - - - -
01/12:00pm 27.3 SSW 8 15 1015.7 - 0.0 - - - - - - -
01/11:30am 26.6 SW 7 13 1016.1 - 0.0 - - - - - - -
01/11:00am 26.5 SSW 10 17 1016.4 - 0.0 - - - - - - -
01/10:30am 26.0 S 11 17 1016.6 - 0.0 - - - - - - -
01/10:00am 25.0 S 10 15 1016.8 - 0.0 - - - - - - -

Other Formats:

Comma delimited format used in spreadsheet applications
http://www.bom.gov.au/fwo/IDW60701/IDW60701.94306.axf

JavaScript Object Notation format (JSON) in row-major order
http://www.bom.gov.au/fwo/IDW60701/IDW60701.94306.json